Flight Track Log - Related Links

Times and Time Zones

All times are in EDT time to prevent confusion due to time zone crossing. See the DAL3673 flight status page for this flight to view local times or setup timezone preferences in your user account.

Time Position Orientation Groundspeed Altitude Reporting Facility
EDT Latitude Longitude Course Direction KTS MPH feet Rate Location/Type
Fri 03:35:16 PM 44.9000 -93.2667 164° South 176 203 3,400  Level Minneapolis TRACON
Fri 03:35:42 PM 44.8967 -93.3033 263° West 195 224 4,400 2,250 Climbing Minneapolis Center
Fri 03:36:44 PM 44.8711 -93.3764 244° Southwest 233 268 6,700 2,323 Climbing Minneapolis Center
Fri 03:37:00 PM 44.7304 -92.9161 139° Southeast  Level Estimated
Fri 03:37:46 PM 44.7956 -93.3664 175° South 282 325 9,200  Level Minneapolis Center
Fri 03:38:00 PM 44.6457 -92.8818 164° South  Level FlightAware Approximate
Fri 03:38:48 PM 44.7311 -93.2517 128° Southeast 335 386 10,900  Level Minneapolis Center
Fri 03:39:00 PM 44.5979 -92.7777 141° Southeast  Level Estimated
Fri 03:39:50 PM 44.6781 -93.1328 122° Southeast 374 430 11,000  Level Minneapolis Center
Fri 03:40:00 PM 44.5133 -92.7428 164° South  Level FlightAware Approximate
Fri 03:40:52 PM 44.6236 -93.0006 120° Southeast 392 451 11,000  Level Minneapolis Center
Fri 03:41:54 PM 44.5681 -92.8672 120° Southeast 398 458 11,000  Level Minneapolis Center
Fri 03:42:56 PM 44.5000 -92.7039 120° Southeast 407 468 11,000  Level Minneapolis Center
Fri 03:43:58 PM 44.4433 -92.5686 120° Southeast 405 466 11,000  Level Minneapolis Center
Fri 03:44:59 PM 44.3872 -92.4350 120° Southeast 400 460 11,000  Level Minneapolis Center
Fri 03:46:13 PM 44.3242 -92.2894 121° Southeast 401 461 11,000  Level Minneapolis Center
Fri 03:47:16 PM 44.2556 -92.1261 120° Southeast 392 451 11,000  Level Minneapolis Center
Fri 03:48:17 PM 44.2006 -91.9969 121° Southeast 391 450 11,000  Level Minneapolis Center
Fri 03:49:19 PM 44.1406 -91.8589 121° Southeast 389 448 11,000 -387 Level Minneapolis Center
Fri 03:50:21 PM 44.0925 -91.7469 121° Southeast 337 388 10,200 -1,355 Descending Minneapolis Center
Fri 03:51:23 PM 44.0456 -91.6397 121° Southeast 303 349 8,200 -1,935 Descending Minneapolis Center
Fri 03:52:25 PM 44.0064 -91.5419 119° Southeast 295 339 6,200 -1,984 Descending Minneapolis Center
Fri 03:53:27 PM 43.9806 -91.4342 108° East 275 316 4,100 -1,065 Descending Minneapolis Center
Fri 03:54:29 PM 43.9606 -91.3500 108° East 230 265 4,000 -48 Descending Minneapolis Center
Fri 03:55:31 PM 43.9919 -91.2981 50° Northeast 212 244 4,000  Level Minneapolis Center
Fri 03:56:33 PM 44.0392 -91.2733 21° North 208 239 4,000 -581 Level Minneapolis Center
Fri 03:57:35 PM 44.0003 -91.2536 160° South 171 197 2,800 -1,161 Descending Minneapolis Center

Login

Don't have an account? Register now (free) for customized features, flight alerts, and more!